URWW 272130Z 15008MPS CAVOK 17/10 Q1009 R06/010070 TEMPO -TSRAGR BKN020CB
QNH:(hPa/inHg/mmHg)1009 / 29.8 / 757
QFE:(hPa/inHg/mmHg)991 / 29.27 / 743
Temperature17
Dew Point10
Visibility> 10000
WeatherCAVOK
Cloud CoverBKN (2000);
Transition Altitude3000 ft.
Transition LevelFL50
SQUAWK